La Valle, Wisconsin
Current Conditions -  °F | °C
As of 12:35 AM on Tuesday 21 Oct 2014 (Local Time) from KC35 Reporting Station
Broken Clouds Broken Clouds  
Wind Chill: 47°   Ceiling: 4400
Heat Index: 47°   Visibility: 10mi
Dew Point: 39°   Wind: 0mph
Humidity: 73%   Direction: NA
Pressure: 30.05"   Gusts: NA
Location:  43.58°N, 90.13°W
Report Text: KC35 210535Z AUTO 00000KT 10SM BKN044 09/04 A3005 RMK AO2 T00850040
Loading
Personal Weather Stations






























Interactive Weather Map
Tropical Storm Tracking
New forecast layout! Learn more

10-Day Weather Forecast

Advertisements
Track Severe Weather on mobile